createdAt,value
2023-06-11T00:01:09.815Z,101399.88
2023-06-11T00:03:42.231Z,101398.91
2023-06-11T00:06:12.649Z,101400.53
2023-06-11T00:08:40.347Z,101394.13
2023-06-11T00:11:07.978Z,101403.31
2023-06-11T00:13:36.108Z,101399.38
2023-06-11T00:16:03.944Z,101403.63
2023-06-11T00:18:32.255Z,101395.94
2023-06-11T00:21:01.328Z,101404.13
2023-06-11T00:23:29.038Z,101400.69
2023-06-11T00:25:57.197Z,101394.47
2023-06-11T00:28:24.903Z,101400.03
2023-06-11T00:30:53.805Z,101393.00
2023-06-11T00:33:21.484Z,101401.16
2023-06-11T00:35:49.714Z,101401.50
2023-06-11T00:38:20.770Z,101404.75
2023-06-11T00:40:49.022Z,101399.00
2023-06-11T00:43:18.348Z,101394.41
2023-06-11T00:45:46.445Z,101399.94
2023-06-11T00:48:14.583Z,101398.97
2023-06-11T00:50:47.001Z,101401.44
2023-06-11T00:53:15.198Z,101397.00
2023-06-11T00:55:44.277Z,101399.94
2023-06-11T00:58:15.705Z,101397.78
2023-06-11T01:00:46.580Z,101396.75
2023-06-11T01:03:19.117Z,101405.91
2023-06-11T01:05:50.486Z,101395.53
2023-06-11T01:08:21.048Z,101402.84
2023-06-11T01:10:50.457Z,101396.63
2023-06-11T01:13:18.310Z,101397.09
2023-06-11T01:15:46.384Z,101392.81
2023-06-11T01:18:20.451Z,101401.59
2023-06-11T01:20:52.863Z,101401.53
2023-06-11T01:23:34.583Z,101400.34
2023-06-11T01:26:17.883Z,101407.63
2023-06-11T01:28:50.422Z,101405.78
2023-06-11T01:31:20.272Z,101416.28
2023-06-11T01:33:48.441Z,101403.16
2023-06-11T01:36:18.309Z,101409.06
2023-06-11T01:38:46.604Z,101409.56
2023-06-11T01:41:14.516Z,101413.78
2023-06-11T01:43:42.878Z,101417.19
2023-06-11T01:46:11.973Z,101414.41
2023-06-11T01:48:39.655Z,101413.38
2023-06-11T01:51:08.421Z,101415.97
2023-06-11T01:53:36.135Z,101416.38
2023-06-11T01:56:04.342Z,101409.81
2023-06-11T01:58:32.104Z,101419.28
2023-06-11T02:01:00.348Z,101415.06
2023-06-11T02:03:29.490Z,101415.28
2023-06-11T02:05:57.752Z,101413.44
2023-06-11T02:08:25.431Z,101408.00
2023-06-11T02:10:53.063Z,101415.44
2023-06-11T02:13:21.161Z,101413.97
2023-06-11T02:15:48.851Z,101411.53
2023-06-11T02:18:16.933Z,101410.81
2023-06-11T02:20:45.945Z,101408.28
2023-06-11T02:23:14.020Z,101404.88
2023-06-11T02:25:41.735Z,101412.69
2023-06-11T02:28:09.993Z,101406.94
2023-06-11T02:30:37.665Z,101420.81
2023-06-11T02:33:05.925Z,101420.06
2023-06-11T02:35:33.624Z,101424.84
2023-06-11T02:38:02.727Z,101419.31
2023-06-11T02:40:31.250Z,101421.56
2023-06-11T02:42:58.947Z,101417.78
2023-06-11T02:45:26.968Z,101430.00
2023-06-11T02:47:54.730Z,101414.81
2023-06-11T02:50:22.754Z,101424.47
2023-06-11T02:52:50.464Z,101430.63
2023-06-11T02:55:19.642Z,101434.63
2023-06-11T02:57:47.726Z,101431.34
2023-06-11T03:00:15.913Z,101427.00
2023-06-11T03:02:44.024Z,101425.44
2023-06-11T03:05:12.198Z,101428.22
2023-06-11T03:07:40.704Z,101426.91
2023-06-11T03:10:09.408Z,101430.25
2023-06-11T03:12:38.954Z,101433.25
2023-06-11T03:15:08.052Z,101430.47
2023-06-11T03:17:35.845Z,101430.47
2023-06-11T03:20:03.973Z,101433.03
2023-06-11T03:22:31.735Z,101433.88
2023-06-11T03:24:59.829Z,101440.31
2023-06-11T03:27:27.543Z,101435.78
2023-06-11T03:29:56.661Z,101427.78
2023-06-11T03:32:24.476Z,101438.53
2023-06-11T03:34:53.333Z,101426.13
2023-06-11T03:37:21.497Z,101436.69
2023-06-11T03:39:49.261Z,101434.22
2023-06-11T03:42:17.495Z,101426.13
2023-06-11T03:44:45.189Z,101436.16
2023-06-11T03:47:14.918Z,101436.75
2023-06-11T03:49:42.704Z,101438.72
2023-06-11T03:52:11.067Z,101437.38
2023-06-11T03:54:38.818Z,101445.25
2023-06-11T03:57:07.576Z,101442.41
2023-06-11T03:59:35.280Z,101444.03
2023-06-11T04:02:03.119Z,101445.16
2023-06-11T04:04:34.016Z,101449.06
2023-06-11T04:07:01.727Z,101446.81
2023-06-11T04:09:30.506Z,101450.41
2023-06-11T04:11:58.673Z,101448.78
2023-06-11T04:14:26.822Z,101459.38
2023-06-11T04:16:54.613Z,101449.41
2023-06-11T04:19:22.970Z,101455.53
2023-06-11T04:21:51.999Z,101456.09
2023-06-11T04:24:19.705Z,101452.72
2023-06-11T04:26:49.114Z,101455.38
2023-06-11T04:29:19.436Z,101460.41
2023-06-11T04:31:48.220Z,101467.38
2023-06-11T04:34:18.167Z,101463.19
2023-06-11T04:36:46.644Z,101463.47
2023-06-11T04:39:15.825Z,101456.81
2023-06-11T04:41:44.399Z,101460.09
2023-06-11T04:44:12.568Z,101459.06
2023-06-11T04:46:42.074Z,101455.28
2023-06-11T04:49:10.209Z,101451.41
2023-06-11T04:51:41.660Z,101464.13
2023-06-11T04:54:09.829Z,101458.06
2023-06-11T04:56:38.944Z,101454.81
2023-06-11T04:59:07.518Z,101455.66
2023-06-11T05:01:38.411Z,101455.84
2023-06-11T05:04:06.407Z,101456.91
2023-06-11T05:06:35.083Z,101455.44
2023-06-11T05:09:02.823Z,101451.38
2023-06-11T05:11:30.905Z,101452.19
2023-06-11T05:14:00.232Z,101457.72
2023-06-11T05:16:27.996Z,101461.22
2023-06-11T05:18:56.134Z,101455.81
2023-06-11T05:21:23.832Z,101457.66
2023-06-11T05:23:52.012Z,101456.22
2023-06-11T05:26:20.247Z,101457.88
2023-06-11T05:28:48.397Z,101458.38
2023-06-11T05:31:17.492Z,101459.72
2023-06-11T05:33:45.560Z,101459.84
2023-06-11T05:36:13.272Z,101465.38
2023-06-11T05:38:41.544Z,101463.41
2023-06-11T05:41:09.269Z,101460.34
2023-06-11T05:43:37.866Z,101462.22
2023-06-11T05:46:06.093Z,101466.00
2023-06-11T05:48:35.533Z,101459.50
2023-06-11T05:51:03.201Z,101465.78
2023-06-11T05:53:31.299Z,101463.72
2023-06-11T05:56:04.317Z,101470.78
2023-06-11T05:58:33.537Z,101463.41
2023-06-11T06:01:03.447Z,101479.59
2023-06-11T06:03:32.184Z,101476.19
2023-06-11T06:06:02.625Z,101481.44
2023-06-11T06:08:31.788Z,101474.56
2023-06-11T06:11:00.056Z,101471.56
2023-06-11T06:13:28.623Z,101477.72
2023-06-11T06:15:56.290Z,101471.94
2023-06-11T06:18:24.855Z,101470.06
2023-06-11T06:20:52.542Z,101482.81
2023-06-11T06:23:22.365Z,101474.84
2023-06-11T06:25:50.041Z,101475.22
2023-06-11T06:28:18.628Z,101470.88
2023-06-11T06:30:46.371Z,101476.81
2023-06-11T06:33:14.580Z,101476.25
2023-06-11T06:35:42.668Z,101474.34
2023-06-11T06:38:10.384Z,101478.59
2023-06-11T06:40:40.031Z,101482.78
2023-06-11T06:43:07.870Z,101484.91
2023-06-11T06:45:36.357Z,101480.16
2023-06-11T06:48:04.097Z,101476.75
2023-06-11T06:50:32.902Z,101474.63
2023-06-11T06:53:00.778Z,101478.13
2023-06-11T06:55:28.545Z,101478.88
2023-06-11T06:57:57.996Z,101477.06
2023-06-11T07:00:26.336Z,101485.75
2023-06-11T07:02:54.127Z,101478.09
2023-06-11T07:05:22.261Z,101479.91
2023-06-11T07:07:49.959Z,101486.13
2023-06-11T07:10:19.367Z,101486.50
2023-06-11T07:12:47.114Z,101485.88
2023-06-11T07:15:16.806Z,101485.38
2023-06-11T07:17:44.483Z,101478.84
2023-06-11T07:20:13.928Z,101480.47
2023-06-11T07:22:42.335Z,101479.03
2023-06-11T07:25:10.796Z,101481.66
2023-06-11T07:27:38.934Z,101482.47
2023-06-11T07:30:08.137Z,101479.22
2023-06-11T07:32:38.751Z,101477.56
2023-06-11T07:35:07.081Z,101477.88
2023-06-11T07:37:35.392Z,101483.47
2023-06-11T07:40:05.133Z,101483.44
2023-06-11T07:42:32.948Z,101483.44
2023-06-11T07:45:00.728Z,101490.00
2023-06-11T07:47:28.773Z,101487.00
2023-06-11T07:49:57.969Z,101494.38
2023-06-11T07:52:26.765Z,101484.19
2023-06-11T07:54:54.419Z,101487.16
2023-06-11T07:57:22.509Z,101495.97
2023-06-11T07:59:50.593Z,101483.28
2023-06-11T08:02:18.341Z,101483.56
2023-06-11T08:04:46.597Z,101490.91
2023-06-11T08:07:15.862Z,101488.28
2023-06-11T08:09:43.979Z,101487.59
2023-06-11T08:12:13.059Z,101488.41
2023-06-11T08:14:42.011Z,101487.88
2023-06-11T08:17:10.920Z,101481.91
2023-06-11T08:19:38.724Z,101486.66
2023-06-11T08:22:07.466Z,101490.53
2023-06-11T08:24:36.599Z,101490.13
2023-06-11T08:27:04.956Z,101496.00
2023-06-11T08:29:33.149Z,101489.09
2023-06-11T08:32:01.652Z,101492.03
2023-06-11T08:34:29.431Z,101492.78
2023-06-11T08:36:57.278Z,101492.22
2023-06-11T08:39:25.627Z,101485.06
2023-06-11T08:41:55.044Z,101483.00
2023-06-11T08:44:26.231Z,101488.06
2023-06-11T08:46:56.728Z,101496.34
2023-06-11T08:49:25.343Z,101480.66
2023-06-11T08:51:53.006Z,101478.59
2023-06-11T08:54:21.499Z,101471.59
2023-06-11T08:56:49.841Z,101467.72
2023-06-11T08:59:20.542Z,101468.19
2023-06-11T09:01:51.886Z,101468.25
2023-06-11T09:04:20.340Z,101462.16
2023-06-11T09:06:52.477Z,101468.91
2023-06-11T09:09:21.043Z,101464.81
2023-06-11T09:11:48.936Z,101460.59
2023-06-11T09:14:18.372Z,101459.63
2023-06-11T09:16:47.634Z,101458.56
2023-06-11T09:19:17.181Z,101455.25
2023-06-11T09:21:52.162Z,101462.50
2023-06-11T09:24:21.584Z,101449.13
2023-06-11T09:26:51.114Z,101452.69
2023-06-11T09:29:20.525Z,101444.56
2023-06-11T09:31:48.323Z,101452.09
2023-06-11T09:34:23.473Z,101448.34
2023-06-11T09:36:52.927Z,101447.22
2023-06-11T09:39:21.636Z,101447.91
2023-06-11T09:41:50.149Z,101448.47
2023-06-11T09:44:19.067Z,101440.50
2023-06-11T09:46:48.845Z,101438.75
2023-06-11T09:49:17.885Z,101440.47
2023-06-11T09:51:45.906Z,101448.69
2023-06-11T09:54:15.127Z,101446.94
2023-06-11T09:56:43.932Z,101445.13
2023-06-11T09:59:13.262Z,101434.53
2023-06-11T10:01:42.727Z,101450.06
2023-06-11T10:04:12.082Z,101445.22
2023-06-11T10:06:45.341Z,101452.09
2023-06-11T10:09:15.526Z,101452.59
2023-06-11T10:11:45.210Z,101438.28
2023-06-11T10:14:14.294Z,101440.59
2023-06-11T10:16:42.669Z,101444.91
2023-06-11T10:19:12.597Z,101445.59
2023-06-11T10:21:44.462Z,101451.06
2023-06-11T10:24:22.387Z,101447.63
2023-06-11T10:27:05.971Z,101447.75
2023-06-11T10:29:39.482Z,101441.84
2023-06-11T10:32:17.848Z,101437.00
2023-06-11T10:34:50.110Z,101436.00
2023-06-11T10:37:28.996Z,101436.59
2023-06-11T10:39:57.122Z,101437.06
2023-06-11T10:42:26.324Z,101435.66
2023-06-11T10:44:58.287Z,101435.84
2023-06-11T10:47:26.699Z,101435.22
2023-06-11T10:50:06.719Z,101435.47
2023-06-11T10:52:34.923Z,101448.72
2023-06-11T10:55:02.758Z,101440.16
2023-06-11T10:57:30.952Z,101442.16
2023-06-11T10:59:59.277Z,101440.41
2023-06-11T11:02:28.550Z,101426.72
2023-06-11T11:04:57.666Z,101418.13
2023-06-11T11:07:35.828Z,101425.31
2023-06-11T11:10:03.800Z,101419.41
2023-06-11T11:12:37.628Z,101424.53
2023-06-11T11:15:06.587Z,101437.16
2023-06-11T11:17:35.017Z,101435.25
2023-06-11T11:20:08.906Z,101424.28
2023-06-11T11:22:37.089Z,101431.22
2023-06-11T11:25:06.652Z,101431.13
2023-06-11T11:27:38.540Z,101416.72
2023-06-11T11:30:07.668Z,101411.03
2023-06-11T11:32:37.486Z,101421.28
2023-06-11T11:35:08.162Z,101406.28
2023-06-11T11:37:36.431Z,101409.72
2023-06-11T11:40:09.082Z,101417.13
2023-06-11T11:42:46.689Z,101404.22
2023-06-11T11:45:15.657Z,101398.41
2023-06-11T11:47:44.375Z,101401.06
2023-06-11T11:50:24.319Z,101403.56
2023-06-11T11:53:04.660Z,101387.34
2023-06-11T11:55:41.998Z,101386.69
2023-06-11T11:58:17.681Z,101382.31
2023-06-11T12:00:50.436Z,101399.84
2023-06-11T12:03:21.390Z,101391.56
2023-06-11T12:05:59.501Z,101398.13
2023-06-11T12:08:28.604Z,101396.13
2023-06-11T12:10:56.511Z,101382.72
2023-06-11T12:13:24.389Z,101384.38
2023-06-11T12:15:52.646Z,101383.50
2023-06-11T12:18:20.612Z,101385.03
2023-06-11T12:20:49.304Z,101381.00
2023-06-11T12:23:18.431Z,101378.91
2023-06-11T12:25:46.595Z,101374.03
2023-06-11T12:28:14.364Z,101376.78
2023-06-11T12:30:43.217Z,101379.50
2023-06-11T12:33:11.677Z,101378.16
2023-06-11T12:35:39.848Z,101372.25
2023-06-11T12:38:07.919Z,101382.84
2023-06-11T12:40:37.944Z,101377.63
2023-06-11T12:43:06.116Z,101369.56
2023-06-11T12:45:38.215Z,101364.72
2023-06-11T12:48:06.723Z,101363.16
2023-06-11T12:50:34.528Z,101378.38
2023-06-11T12:53:03.523Z,101373.63
2023-06-11T12:55:31.505Z,101368.34
2023-06-11T12:58:00.554Z,101364.47
2023-06-11T13:00:31.489Z,101367.81
2023-06-11T13:02:59.607Z,101364.25
2023-06-11T13:05:27.821Z,101356.84
2023-06-11T13:07:56.394Z,101352.03
2023-06-11T13:10:26.155Z,101355.66
2023-06-11T13:12:56.535Z,101361.22
2023-06-11T13:15:25.554Z,101359.88
2023-06-11T13:17:53.330Z,101352.34
2023-06-11T13:20:22.931Z,101345.91
2023-06-11T13:22:51.076Z,101339.84
2023-06-11T13:25:18.988Z,101344.47
2023-06-11T13:27:47.441Z,101348.75
2023-06-11T13:30:15.841Z,101353.50
2023-06-11T13:32:47.108Z,101358.81
2023-06-11T13:35:15.410Z,101348.81
2023-06-11T13:37:43.449Z,101348.09
2023-06-11T13:40:12.719Z,101349.44
2023-06-11T13:42:41.226Z,101349.53
2023-06-11T13:45:09.860Z,101343.16
2023-06-11T13:47:37.525Z,101341.22
2023-06-11T13:50:07.881Z,101333.25
2023-06-11T13:52:36.022Z,101338.59
2023-06-11T13:55:03.802Z,101351.41
2023-06-11T13:57:32.653Z,101351.94
2023-06-11T14:00:02.040Z,101346.75
2023-06-11T14:02:29.793Z,101345.25
2023-06-11T14:04:57.734Z,101340.44
2023-06-11T14:07:27.068Z,101340.22
2023-06-11T14:09:56.691Z,101345.47
2023-06-11T14:12:24.734Z,101332.75
2023-06-11T14:14:54.497Z,101324.88
2023-06-11T14:17:22.712Z,101327.16
2023-06-11T14:19:50.813Z,101341.13
2023-06-11T14:22:18.840Z,101331.69
2023-06-11T14:24:48.110Z,101327.38
2023-06-11T14:27:15.802Z,101338.84
2023-06-11T14:29:43.780Z,101342.56
2023-06-11T14:32:14.197Z,101343.47
2023-06-11T14:34:43.928Z,101339.84
2023-06-11T14:37:12.410Z,101346.59
2023-06-11T14:39:40.506Z,101337.25
2023-06-11T14:42:10.250Z,101331.97
2023-06-11T14:44:37.961Z,101331.84
2023-06-11T14:47:06.738Z,101331.31
2023-06-11T14:49:35.284Z,101322.41
2023-06-11T14:52:09.339Z,101320.41
2023-06-11T14:54:37.297Z,101324.91
2023-06-11T14:57:14.094Z,101320.41
2023-06-11T14:59:42.346Z,101322.84
2023-06-11T15:02:10.640Z,101329.75
2023-06-11T15:04:40.257Z,101319.75
2023-06-11T15:07:20.266Z,101313.69
2023-06-11T15:09:53.067Z,101318.59
2023-06-11T15:12:22.688Z,101316.19
2023-06-11T15:14:50.381Z,101305.31
2023-06-11T15:17:18.627Z,101301.53
2023-06-11T15:19:46.459Z,101304.16
2023-06-11T15:22:14.699Z,101300.69
2023-06-11T15:24:42.416Z,101299.63
2023-06-11T15:27:10.771Z,101293.66
2023-06-11T15:29:39.876Z,101282.81
2023-06-11T15:32:08.926Z,101265.31
2023-06-11T15:34:36.714Z,101273.19
2023-06-11T15:37:05.268Z,101250.28
2023-06-11T15:39:32.921Z,101272.75
2023-06-11T15:42:00.623Z,101262.63
2023-06-11T15:44:28.619Z,101261.06
2023-06-11T15:46:57.642Z,101257.91
2023-06-11T15:49:25.362Z,101275.72
2023-06-11T15:51:53.480Z,101269.75
2023-06-11T15:54:21.260Z,101270.69
2023-06-11T15:56:49.565Z,101274.34
2023-06-11T15:59:17.418Z,101270.34
2023-06-11T16:01:45.184Z,101274.00
2023-06-11T16:04:15.341Z,101282.09
2023-06-11T16:06:43.115Z,101284.00
2023-06-11T16:09:10.786Z,101279.91
2023-06-11T16:11:39.347Z,101278.88
2023-06-11T16:14:06.980Z,101271.81
2023-06-11T16:16:35.301Z,101270.78
2023-06-11T16:19:03.496Z,101271.88
2023-06-11T16:21:32.502Z,101279.03
2023-06-11T16:24:00.362Z,101278.63
2023-06-11T16:26:28.113Z,101275.03
2023-06-11T16:28:56.671Z,101280.25
2023-06-11T16:31:24.789Z,101278.25
2023-06-11T16:33:58.346Z,101280.25
2023-06-11T16:36:27.213Z,101279.06
2023-06-11T16:39:01.220Z,101285.38
2023-06-11T16:41:34.223Z,101285.25
2023-06-11T16:44:02.144Z,101284.72
2023-06-11T16:46:29.946Z,101285.91
2023-06-11T16:48:58.000Z,101278.63
2023-06-11T16:51:25.780Z,101276.53
2023-06-11T16:53:53.888Z,101276.50
2023-06-11T16:56:23.162Z,101278.03
2023-06-11T16:58:56.192Z,101278.91
2023-06-11T17:01:24.644Z,101273.16
2023-06-11T17:03:53.076Z,101270.78
2023-06-11T17:06:20.914Z,101282.34
2023-06-11T17:08:48.984Z,101277.41
2023-06-11T17:11:16.675Z,101280.63
2023-06-11T17:13:46.123Z,101276.09
2023-06-11T17:16:14.902Z,101276.03
2023-06-11T17:18:44.249Z,101281.22
2023-06-11T17:21:12.390Z,101274.34
2023-06-11T17:23:40.137Z,101274.63
2023-06-11T17:26:08.402Z,101273.31
2023-06-11T17:28:36.815Z,101270.16
2023-06-11T17:31:06.544Z,101276.97
2023-06-11T17:33:34.312Z,101274.41
2023-06-11T17:36:02.023Z,101279.59
2023-06-11T17:38:30.256Z,101279.59
2023-06-11T17:40:58.135Z,101277.53
2023-06-11T17:43:26.166Z,101273.47
2023-06-11T17:45:53.850Z,101268.50
2023-06-11T17:48:23.862Z,101270.88
2023-06-11T17:50:51.546Z,101280.41
2023-06-11T17:53:19.690Z,101285.41
2023-06-11T17:55:50.305Z,101280.84
2023-06-11T17:58:18.423Z,101282.66
2023-06-11T18:00:46.539Z,101278.19
2023-06-11T18:03:14.326Z,101275.13
2023-06-11T18:05:43.748Z,101270.97
2023-06-11T18:08:11.484Z,101273.25
2023-06-11T18:10:39.273Z,101266.03
2023-06-11T18:13:07.069Z,101265.03
2023-06-11T18:15:36.343Z,101273.00
2023-06-11T18:18:06.294Z,101271.19
2023-06-11T18:20:34.614Z,101274.28
2023-06-11T18:23:03.862Z,101276.81
2023-06-11T18:25:32.107Z,101271.84
2023-06-11T18:28:00.593Z,101276.09
2023-06-11T18:30:28.721Z,101276.00
2023-06-11T18:32:56.477Z,101272.22
2023-06-11T18:35:24.553Z,101276.13
2023-06-11T18:37:52.360Z,101270.22
2023-06-11T18:40:22.000Z,101268.50
2023-06-11T18:42:49.709Z,101275.72
2023-06-11T18:45:17.828Z,101266.72
2023-06-11T18:47:45.568Z,101268.38
2023-06-11T18:50:13.598Z,101275.88
2023-06-11T18:52:41.774Z,101272.88
2023-06-11T18:55:10.213Z,101271.53
2023-06-11T18:57:39.551Z,101272.69
2023-06-11T19:00:08.450Z,101274.13
2023-06-11T19:02:36.688Z,101273.59
2023-06-11T19:05:04.674Z,101278.72
2023-06-11T19:07:33.254Z,101281.44
2023-06-11T19:10:01.231Z,101284.03
2023-06-11T19:12:28.986Z,101288.34
2023-06-11T19:14:58.366Z,101290.50
2023-06-11T19:17:26.001Z,101287.94
2023-06-11T19:19:54.936Z,101288.19
2023-06-11T19:22:22.683Z,101284.03
2023-06-11T19:24:50.878Z,101285.50
2023-06-11T19:27:19.199Z,101290.91
2023-06-11T19:29:47.705Z,101290.78
2023-06-11T19:32:17.155Z,101285.31
2023-06-11T19:34:44.990Z,101292.09
2023-06-11T19:37:14.052Z,101298.63
2023-06-11T19:39:41.809Z,101298.50
2023-06-11T19:42:10.109Z,101297.72
2023-06-11T19:44:37.871Z,101295.84
2023-06-11T19:47:06.630Z,101300.50
2023-06-11T19:49:35.946Z,101308.81
2023-06-11T19:52:04.220Z,101311.47
2023-06-11T19:54:46.530Z,101312.06
2023-06-11T19:57:18.772Z,101303.91
2023-06-11T19:59:46.592Z,101308.56
2023-06-11T20:02:14.533Z,101307.97
2023-06-11T20:04:44.180Z,101306.69
2023-06-11T20:07:12.103Z,101314.03
2023-06-11T20:09:41.931Z,101313.06
2023-06-11T20:12:10.191Z,101321.69
2023-06-11T20:14:38.689Z,101317.94
2023-06-11T20:17:06.624Z,101325.41
2023-06-11T20:19:37.194Z,101318.88
2023-06-11T20:22:07.500Z,101327.94
2023-06-11T20:24:35.747Z,101326.44
2023-06-11T20:27:03.484Z,101323.31
2023-06-11T20:29:32.078Z,101328.63
2023-06-11T20:32:00.075Z,101320.25
2023-06-11T20:34:28.249Z,101326.19
2023-06-11T20:36:56.365Z,101330.47
2023-06-11T20:39:26.690Z,101333.50
2023-06-11T20:41:54.800Z,101333.38
2023-06-11T20:44:22.956Z,101330.94
2023-06-11T20:46:51.261Z,101335.09
2023-06-11T20:49:19.504Z,101334.50
2023-06-11T20:51:47.250Z,101349.81
2023-06-11T20:54:15.504Z,101342.59
2023-06-11T20:56:44.533Z,101343.75
2023-06-11T20:59:12.311Z,101341.56
2023-06-11T21:01:40.674Z,101346.50
2023-06-11T21:04:08.563Z,101349.13
2023-06-11T21:06:39.142Z,101347.72
2023-06-11T21:09:06.658Z,101351.41
2023-06-11T21:11:34.769Z,101343.50
2023-06-11T21:14:13.402Z,101353.03
2023-06-11T21:16:42.823Z,101358.81
2023-06-11T21:19:10.619Z,101352.63
2023-06-11T21:21:39.150Z,101359.38
2023-06-11T21:24:07.489Z,101354.44
2023-06-11T21:26:36.027Z,101356.16
2023-06-11T21:29:05.891Z,101356.69
2023-06-11T21:31:34.332Z,101364.44
2023-06-11T21:34:02.439Z,101356.75
2023-06-11T21:36:30.518Z,101357.44
2023-06-11T21:38:58.187Z,101363.84
2023-06-11T21:41:27.201Z,101364.41
2023-06-11T21:43:54.968Z,101366.88
2023-06-11T21:46:24.174Z,101365.91
2023-06-11T21:48:52.356Z,101369.56
2023-06-11T21:51:21.738Z,101375.81
2023-06-11T21:53:49.424Z,101374.16
2023-06-11T21:56:17.575Z,101369.41
2023-06-11T21:58:45.230Z,101372.56
2023-06-11T22:01:13.446Z,101369.94
2023-06-11T22:03:42.535Z,101373.25
2023-06-11T22:06:11.242Z,101375.41
2023-06-11T22:08:38.927Z,101377.22
2023-06-11T22:11:07.011Z,101371.00
2023-06-11T22:13:34.686Z,101370.53
2023-06-11T22:16:03.024Z,101378.06
2023-06-11T22:18:33.950Z,101379.38
2023-06-11T22:21:03.564Z,101369.88
2023-06-11T22:23:45.652Z,101384.66
2023-06-11T22:26:19.579Z,101384.47
2023-06-11T22:28:47.383Z,101385.97
2023-06-11T22:31:15.319Z,101385.16
2023-06-11T22:33:44.925Z,101394.84
2023-06-11T22:36:14.051Z,101389.91
2023-06-11T22:38:42.146Z,101392.34
2023-06-11T22:41:10.364Z,101388.56
2023-06-11T22:43:38.655Z,101390.88
2023-06-11T22:46:06.480Z,101386.78
2023-06-11T22:48:34.603Z,101389.06
2023-06-11T22:51:02.417Z,101390.06
2023-06-11T22:53:33.389Z,101396.28
2023-06-11T22:56:02.412Z,101401.69
2023-06-11T22:58:31.491Z,101403.47
2023-06-11T23:00:59.700Z,101401.00
2023-06-11T23:03:27.900Z,101400.34
2023-06-11T23:05:55.658Z,101402.00
2023-06-11T23:08:23.381Z,101407.19
2023-06-11T23:10:52.502Z,101401.13
2023-06-11T23:13:20.507Z,101406.72
2023-06-11T23:15:48.294Z,101406.22
2023-06-11T23:18:19.322Z,101407.50
2023-06-11T23:20:47.725Z,101419.28
2023-06-11T23:23:17.054Z,101410.94
2023-06-11T23:25:45.508Z,101407.97
2023-06-11T23:28:15.880Z,101409.28
2023-06-11T23:30:43.626Z,101407.16
2023-06-11T23:33:14.277Z,101417.72
2023-06-11T23:35:43.160Z,101418.03
2023-06-11T23:38:11.170Z,101411.66
2023-06-11T23:40:39.431Z,101412.41
2023-06-11T23:43:07.164Z,101420.28
2023-06-11T23:45:36.845Z,101422.25
2023-06-11T23:48:04.799Z,101417.13
2023-06-11T23:50:33.336Z,101418.09
2023-06-11T23:53:01.149Z,101413.47
2023-06-11T23:55:29.255Z,101410.03
2023-06-11T23:58:18.728Z,101415.59
